sensor_id;sensor_type;location;lat;lon;timestamp;pressure;altitude;pressure_sealevel;temperature;humidity
65190;BME280;51777;53.570;9.984;2022-07-01T00:01:21;100902.28;;;22.97;65.49
65190;BME280;51777;53.570;9.984;2022-07-01T00:03:46;100927.25;;;22.76;64.91
65190;BME280;51777;53.570;9.984;2022-07-01T00:06:16;100925.56;;;22.63;63.86
65190;BME280;51777;53.570;9.984;2022-07-01T00:08:41;100932.16;;;22.54;63.45
65190;BME280;51777;53.570;9.984;2022-07-01T00:11:07;100917.81;;;22.50;64.60
65190;BME280;51777;53.570;9.984;2022-07-01T00:13:33;100911.81;;;22.43;65.48
65190;BME280;51777;53.570;9.984;2022-07-01T00:15:59;100917.94;;;22.18;67.45
65190;BME280;51777;53.570;9.984;2022-07-01T00:18:24;100908.94;;;22.01;69.39
65190;BME280;51777;53.570;9.984;2022-07-01T00:20:50;100896.06;;;21.93;70.86
65190;BME280;51777;53.570;9.984;2022-07-01T00:23:18;100888.72;;;21.52;74.29
65190;BME280;51777;53.570;9.984;2022-07-01T00:25:44;100889.47;;;21.21;76.88
65190;BME280;51777;53.570;9.984;2022-07-01T00:28:10;100887.78;;;20.95;79.80
65190;BME280;51777;53.570;9.984;2022-07-01T00:30:36;100871.69;;;20.85;82.17
65190;BME280;51777;53.570;9.984;2022-07-01T00:33:02;100869.69;;;20.80;87.12
65190;BME280;51777;53.570;9.984;2022-07-01T00:35:27;100891.94;;;20.71;90.45
65190;BME280;51777;53.570;9.984;2022-07-01T00:37:53;100895.25;;;20.60;91.79
65190;BME280;51777;53.570;9.984;2022-07-01T00:40:18;100904.56;;;20.49;91.94
65190;BME280;51777;53.570;9.984;2022-07-01T00:42:44;100902.53;;;20.38;92.16
65190;BME280;51777;53.570;9.984;2022-07-01T00:45:10;100883.56;;;20.29;94.72
65190;BME280;51777;53.570;9.984;2022-07-01T00:47:36;100854.28;;;20.19;96.10
65190;BME280;51777;53.570;9.984;2022-07-01T00:50:08;100834.09;;;20.19;97.88
65190;BME280;51777;53.570;9.984;2022-07-01T00:52:34;100820.56;;;20.22;96.59
65190;BME280;51777;53.570;9.984;2022-07-01T00:55:03;100827.03;;;20.27;96.97
65190;BME280;51777;53.570;9.984;2022-07-01T00:57:30;100864.59;;;20.27;98.22
65190;BME280;51777;53.570;9.984;2022-07-01T00:59:56;100879.97;;;20.17;100.00
65190;BME280;51777;53.570;9.984;2022-07-01T01:02:22;100870.69;;;20.14;100.00
65190;BME280;51777;53.570;9.984;2022-07-01T01:04:47;100848.06;;;20.13;100.00
65190;BME280;51777;53.570;9.984;2022-07-01T01:07:13;100840.78;;;20.15;100.00
65190;BME280;51777;53.570;9.984;2022-07-01T01:09:39;100839.97;;;20.08;100.00
65190;BME280;51777;53.570;9.984;2022-07-01T01:12:05;100852.91;;;19.97;100.00
65190;BME280;51777;53.570;9.984;2022-07-01T01:14:43;100840.81;;;19.95;100.00
65190;BME280;51777;53.570;9.984;2022-07-01T01:17:09;100832.97;;;19.89;100.00
65190;BME280;51777;53.570;9.984;2022-07-01T01:19:34;100819.44;;;19.92;100.00
65190;BME280;51777;53.570;9.984;2022-07-01T01:21:59;100826.66;;;19.97;100.00
65190;BME280;51777;53.570;9.984;2022-07-01T01:24:25;100831.13;;;19.96;100.00
65190;BME280;51777;53.570;9.984;2022-07-01T01:26:50;100817.00;;;19.97;100.00
65190;BME280;51777;53.570;9.984;2022-07-01T01:29:16;100811.75;;;19.97;100.00
65190;BME280;51777;53.570;9.984;2022-07-01T01:31:41;100805.69;;;19.97;100.00
65190;BME280;51777;53.570;9.984;2022-07-01T01:34:07;100778.03;;;20.01;100.00
65190;BME280;51777;53.570;9.984;2022-07-01T01:36:32;100759.44;;;19.95;100.00
65190;BME280;51777;53.570;9.984;2022-07-01T01:38:58;100759.69;;;19.87;100.00
65190;BME280;51777;53.570;9.984;2022-07-01T01:41:41;100751.00;;;19.87;100.00
65190;BME280;51777;53.570;9.984;2022-07-01T01:44:07;100761.72;;;19.85;100.00
65190;BME280;51777;53.570;9.984;2022-07-01T01:46:32;100746.38;;;19.82;100.00
65190;BME280;51777;53.570;9.984;2022-07-01T01:48:58;100746.38;;;19.82;100.00
65190;BME280;51777;53.570;9.984;2022-07-01T01:51:24;100764.13;;;19.80;100.00
65190;BME280;51777;53.570;9.984;2022-07-01T01:53:49;100771.41;;;19.78;100.00
65190;BME280;51777;53.570;9.984;2022-07-01T01:56:15;100777.66;;;19.77;100.00
65190;BME280;51777;53.570;9.984;2022-07-01T01:58:41;100781.69;;;19.80;100.00
65190;BME280;51777;53.570;9.984;2022-07-01T02:01:11;100796.84;;;19.84;100.00
65190;BME280;51777;53.570;9.984;2022-07-01T02:03:40;100820.44;;;19.91;100.00
65190;BME280;51777;53.570;9.984;2022-07-01T02:06:06;100823.44;;;19.94;100.00
65190;BME280;51777;53.570;9.984;2022-07-01T02:08:32;100815.59;;;19.88;100.00
65190;BME280;51777;53.570;9.984;2022-07-01T02:10:58;100818.81;;;19.90;100.00
65190;BME280;51777;53.570;9.984;2022-07-01T02:13:24;100814.56;;;19.95;100.00
65190;BME280;51777;53.570;9.984;2022-07-01T02:15:50;100808.31;;;19.97;100.00
65190;BME280;51777;53.570;9.984;2022-07-01T02:18:16;100808.13;;;19.98;100.00
65190;BME280;51777;53.570;9.984;2022-07-01T02:20:42;100820.03;;;19.94;100.00
65190;BME280;51777;53.570;9.984;2022-07-01T02:23:08;100831.13;;;19.96;100.00
65190;BME280;51777;53.570;9.984;2022-07-01T02:25:35;100834.97;;;19.93;100.00
65190;BME280;51777;53.570;9.984;2022-07-01T02:28:02;100832.13;;;19.95;100.00
65190;BME280;51777;53.570;9.984;2022-07-01T02:30:28;100826.06;;;20.01;100.00
65190;BME280;51777;53.570;9.984;2022-07-01T02:32:56;100832.72;;;20.04;100.00
65190;BME280;51777;53.570;9.984;2022-07-01T02:35:21;100837.34;;;20.08;100.00
65190;BME280;51777;53.570;9.984;2022-07-01T02:37:47;100835.53;;;20.09;100.00
65190;BME280;51777;53.570;9.984;2022-07-01T02:40:13;100836.75;;;20.13;100.00
65190;BME280;51777;53.570;9.984;2022-07-01T02:42:39;100831.88;;;20.16;100.00
65190;BME280;51777;53.570;9.984;2022-07-01T02:45:06;100844.41;;;20.08;100.00
65190;BME280;51777;53.570;9.984;2022-07-01T02:47:32;100862.19;;;20.06;100.00
65190;BME280;51777;53.570;9.984;2022-07-01T02:49:58;100860.00;;;20.03;100.00
65190;BME280;51777;53.570;9.984;2022-07-01T02:52:24;100854.94;;;19.94;100.00
65190;BME280;51777;53.570;9.984;2022-07-01T02:54:49;100856.56;;;19.95;100.00
65190;BME280;51777;53.570;9.984;2022-07-01T02:57:14;100859.59;;;19.99;100.00
65190;BME280;51777;53.570;9.984;2022-07-01T02:59:40;100866.25;;;19.95;100.00
65190;BME280;51777;53.570;9.984;2022-07-01T03:02:05;100885.66;;;19.87;100.00
65190;BME280;51777;53.570;9.984;2022-07-01T03:04:32;100891.09;;;19.79;100.00
65190;BME280;51777;53.570;9.984;2022-07-01T03:06:57;100895.75;;;19.77;100.00
65190;BME280;51777;53.570;9.984;2022-07-01T03:09:23;100905.03;;;19.73;100.00
65190;BME280;51777;53.570;9.984;2022-07-01T03:11:48;100916.53;;;19.72;100.00
65190;BME280;51777;53.570;9.984;2022-07-01T03:14:14;100936.91;;;19.63;100.00
65190;BME280;51777;53.570;9.984;2022-07-01T03:16:39;100939.69;;;19.49;100.00
65190;BME280;51777;53.570;9.984;2022-07-01T03:19:05;100946.53;;;19.43;100.00
65190;BME280;51777;53.570;9.984;2022-07-01T03:21:30;100943.91;;;19.50;100.00
65190;BME280;51777;53.570;9.984;2022-07-01T03:23:56;100944.53;;;19.52;100.00
65190;BME280;51777;53.570;9.984;2022-07-01T03:26:21;100938.44;;;19.38;100.00
65190;BME280;51777;53.570;9.984;2022-07-01T03:28:47;100946.28;;;19.31;100.00
65190;BME280;51777;53.570;9.984;2022-07-01T03:31:12;100955.31;;;19.22;100.00
65190;BME280;51777;53.570;9.984;2022-07-01T03:33:38;100948.88;;;19.18;100.00
65190;BME280;51777;53.570;9.984;2022-07-01T03:36:03;100952.28;;;19.19;100.00
65190;BME280;51777;53.570;9.984;2022-07-01T03:38:29;100949.31;;;19.28;100.00
65190;BME280;51777;53.570;9.984;2022-07-01T03:40:54;100959.38;;;19.25;100.00
65190;BME280;51777;53.570;9.984;2022-07-01T03:43:19;100956.38;;;19.28;100.00
65190;BME280;51777;53.570;9.984;2022-07-01T03:45:45;100958.22;;;19.41;100.00
65190;BME280;51777;53.570;9.984;2022-07-01T03:48:10;100958.66;;;19.51;100.00
65190;BME280;51777;53.570;9.984;2022-07-01T03:50:36;100955.44;;;19.49;100.00
65190;BME280;51777;53.570;9.984;2022-07-01T03:53:01;100944.72;;;19.50;100.00
65190;BME280;51777;53.570;9.984;2022-07-01T03:55:45;100942.13;;;19.57;100.00
65190;BME280;51777;53.570;9.984;2022-07-01T03:58:11;100951.19;;;19.48;100.00
65190;BME280;51777;53.570;9.984;2022-07-01T04:00:38;100939.06;;;19.40;100.00
65190;BME280;51777;53.570;9.984;2022-07-01T04:03:04;100936.59;;;19.32;100.00
65190;BME280;51777;53.570;9.984;2022-07-01T04:05:34;100937.84;;;19.36;100.00
65190;BME280;51777;53.570;9.984;2022-07-01T04:08:04;100922.28;;;19.34;100.00
65190;BME280;51777;53.570;9.984;2022-07-01T04:10:33;100917.47;;;19.38;100.00
65190;BME280;51777;53.570;9.984;2022-07-01T04:13:00;100925.13;;;19.40;100.00
65190;BME280;51777;53.570;9.984;2022-07-01T04:15:26;100913.44;;;19.42;100.00
65190;BME280;51777;53.570;9.984;2022-07-01T04:17:52;100907.56;;;19.47;100.00
65190;BME280;51777;53.570;9.984;2022-07-01T04:20:17;100927.75;;;19.46;100.00
65190;BME280;51777;53.570;9.984;2022-07-01T04:22:43;100935.63;;;19.40;100.00
65190;BME280;51777;53.570;9.984;2022-07-01T04:25:08;100944.66;;;19.30;100.00
65190;BME280;51777;53.570;9.984;2022-07-01T04:27:34;100950.09;;;19.22;100.00
65190;BME280;51777;53.570;9.984;2022-07-01T04:29:59;100962.97;;;19.17;100.00
65190;BME280;51777;53.570;9.984;2022-07-01T04:32:27;100962.56;;;19.14;100.00
65190;BME280;51777;53.570;9.984;2022-07-01T04:34:52;100977.25;;;19.08;100.00
65190;BME280;51777;53.570;9.984;2022-07-01T04:37:18;100978.47;;;19.05;100.00
65190;BME280;51777;53.570;9.984;2022-07-01T04:39:44;100976.59;;;18.93;100.00
65190;BME280;51777;53.570;9.984;2022-07-01T04:42:10;100968.72;;;18.93;100.00
65190;BME280;51777;53.570;9.984;2022-07-01T04:44:36;100966.09;;;18.86;100.00
65190;BME280;51777;53.570;9.984;2022-07-01T04:47:03;100965.03;;;18.81;100.00
65190;BME280;51777;53.570;9.984;2022-07-01T04:49:29;100975.72;;;18.79;100.00
65190;BME280;51777;53.570;9.984;2022-07-01T04:51:56;100983.53;;;18.72;100.00
65190;BME280;51777;53.570;9.984;2022-07-01T04:54:22;100982.88;;;18.64;100.00
65190;BME280;51777;53.570;9.984;2022-07-01T04:56:48;100998.69;;;18.49;100.00
65190;BME280;51777;53.570;9.984;2022-07-01T04:59:15;101013.03;;;18.32;100.00
65190;BME280;51777;53.570;9.984;2022-07-01T05:01:42;101021.03;;;18.24;100.00
65190;BME280;51777;53.570;9.984;2022-07-01T05:04:08;101020.16;;;18.16;100.00
65190;BME280;51777;53.570;9.984;2022-07-01T05:06:34;101027.63;;;18.19;100.00
65190;BME280;51777;53.570;9.984;2022-07-01T05:09:00;101028.16;;;17.87;100.00
65190;BME280;51777;53.570;9.984;2022-07-01T05:11:25;101035.72;;;17.82;100.00
65190;BME280;51777;53.570;9.984;2022-07-01T05:13:51;101046.59;;;17.64;100.00
65190;BME280;51777;53.570;9.984;2022-07-01T05:16:17;101049.28;;;17.71;100.00
65190;BME280;51777;53.570;9.984;2022-07-01T05:18:42;101051.81;;;17.79;100.00
65190;BME280;51777;53.570;9.984;2022-07-01T05:21:27;101056.50;;;17.69;100.00
65190;BME280;51777;53.570;9.984;2022-07-01T05:24:11;101058.75;;;17.72;100.00
65190;BME280;51777;53.570;9.984;2022-07-01T05:26:36;101049.63;;;17.68;100.00
65190;BME280;51777;53.570;9.984;2022-07-01T05:29:02;101045.66;;;17.72;100.00
65190;BME280;51777;53.570;9.984;2022-07-01T05:31:28;101054.97;;;17.74;100.00
65190;BME280;51777;53.570;9.984;2022-07-01T05:33:54;101066.59;;;17.72;100.00
65190;BME280;51777;53.570;9.984;2022-07-01T05:36:20;101085.34;;;17.60;100.00
65190;BME280;51777;53.570;9.984;2022-07-01T05:38:45;101083.38;;;17.63;100.00
65190;BME280;51777;53.570;9.984;2022-07-01T05:41:12;101088.22;;;17.66;100.00
65190;BME280;51777;53.570;9.984;2022-07-01T05:43:38;101101.59;;;17.71;100.00
65190;BME280;51777;53.570;9.984;2022-07-01T05:46:03;101090.78;;;17.74;100.00
65190;BME280;51777;53.570;9.984;2022-07-01T05:48:29;101098.50;;;17.82;100.00
65190;BME280;51777;53.570;9.984;2022-07-01T05:50:55;101119.00;;;17.78;100.00
65190;BME280;51777;53.570;9.984;2022-07-01T05:53:20;101130.84;;;17.74;100.00
65190;BME280;51777;53.570;9.984;2022-07-01T05:55:46;101132.50;;;17.67;100.00
65190;BME280;51777;53.570;9.984;2022-07-01T05:58:12;101148.28;;;17.59;100.00
65190;BME280;51777;53.570;9.984;2022-07-01T06:00:41;101158.13;;;17.42;100.00
65190;BME280;51777;53.570;9.984;2022-07-01T06:03:11;101162.91;;;17.24;100.00
65190;BME280;51777;53.570;9.984;2022-07-01T06:05:37;101157.53;;;17.02;100.00
65190;BME280;51777;53.570;9.984;2022-07-01T06:08:03;101163.13;;;16.99;100.00
65190;BME280;51777;53.570;9.984;2022-07-01T06:10:29;101156.63;;;16.95;100.00
65190;BME280;51777;53.570;9.984;2022-07-01T06:12:54;101157.44;;;17.11;100.00
65190;BME280;51777;53.570;9.984;2022-07-01T06:15:19;101155.94;;;17.16;100.00
65190;BME280;51777;53.570;9.984;2022-07-01T06:17:45;101151.53;;;17.17;100.00
65190;BME280;51777;53.570;9.984;2022-07-01T06:20:10;101157.69;;;17.24;100.00
65190;BME280;51777;53.570;9.984;2022-07-01T06:22:36;101148.00;;;17.10;100.00
65190;BME280;51777;53.570;9.984;2022-07-01T06:25:02;101151.31;;;17.03;100.00
65190;BME280;51777;53.570;9.984;2022-07-01T06:27:28;101160.97;;;17.03;100.00
65190;BME280;51777;53.570;9.984;2022-07-01T06:29:53;101165.09;;;16.97;100.00
65190;BME280;51777;53.570;9.984;2022-07-01T06:32:19;101170.19;;;16.76;100.00
65190;BME280;51777;53.570;9.984;2022-07-01T06:34:45;101180.69;;;16.68;100.00
65190;BME280;51777;53.570;9.984;2022-07-01T06:37:11;101170.38;;;16.66;100.00
65190;BME280;51777;53.570;9.984;2022-07-01T06:39:37;101160.28;;;16.63;100.00
65190;BME280;51777;53.570;9.984;2022-07-01T06:42:02;101156.59;;;16.81;100.00
65190;BME280;51777;53.570;9.984;2022-07-01T06:44:28;101158.16;;;16.90;100.00
65190;BME280;51777;53.570;9.984;2022-07-01T06:46:53;101151.84;;;16.99;100.00
65190;BME280;51777;53.570;9.984;2022-07-01T06:49:19;101147.47;;;16.99;100.00
65190;BME280;51777;53.570;9.984;2022-07-01T06:51:44;101135.47;;;17.05;100.00
65190;BME280;51777;53.570;9.984;2022-07-01T06:54:10;101128.19;;;17.15;100.00
65190;BME280;51777;53.570;9.984;2022-07-01T06:56:36;101114.50;;;17.28;100.00
65190;BME280;51777;53.570;9.984;2022-07-01T06:59:01;101118.00;;;17.35;100.00
65190;BME280;51777;53.570;9.984;2022-07-01T07:01:27;101120.53;;;17.43;100.00
65190;BME280;51777;53.570;9.984;2022-07-01T07:03:53;101131.44;;;17.47;100.00
65190;BME280;51777;53.570;9.984;2022-07-01T07:06:19;101147.22;;;17.53;100.00
65190;BME280;51777;53.570;9.984;2022-07-01T07:08:45;101151.91;;;17.58;100.00
65190;BME280;51777;53.570;9.984;2022-07-01T07:11:11;101168.22;;;17.45;100.00
65190;BME280;51777;53.570;9.984;2022-07-01T07:13:40;101175.09;;;17.09;100.00
65190;BME280;51777;53.570;9.984;2022-07-01T07:16:05;101181.50;;;17.06;100.00
65190;BME280;51777;53.570;9.984;2022-07-01T07:18:31;101178.63;;;17.01;100.00
65190;BME280;51777;53.570;9.984;2022-07-01T07:20:56;101178.97;;;16.98;100.00
65190;BME280;51777;53.570;9.984;2022-07-01T07:23:22;101187.53;;;17.07;100.00
65190;BME280;51777;53.570;9.984;2022-07-01T07:25:48;101183.66;;;17.02;100.00
65190;BME280;51777;53.570;9.984;2022-07-01T07:28:13;101185.91;;;17.06;100.00
65190;BME280;51777;53.570;9.984;2022-07-01T07:30:38;101202.38;;;16.91;100.00
65190;BME280;51777;53.570;9.984;2022-07-01T07:33:04;101202.19;;;16.70;100.00
65190;BME280;51777;53.570;9.984;2022-07-01T07:35:29;101207.13;;;16.65;100.00
65190;BME280;51777;53.570;9.984;2022-07-01T07:37:55;101201.25;;;16.63;100.00
65190;BME280;51777;53.570;9.984;2022-07-01T07:40:23;101213.91;;;16.74;100.00
65190;BME280;51777;53.570;9.984;2022-07-01T07:42:49;101221.34;;;16.85;100.00
65190;BME280;51777;53.570;9.984;2022-07-01T07:45:15;101221.97;;;16.64;100.00
65190;BME280;51777;53.570;9.984;2022-07-01T07:47:46;101226.69;;;16.61;100.00
65190;BME280;51777;53.570;9.984;2022-07-01T07:50:13;101225.88;;;16.68;100.00
65190;BME280;51777;53.570;9.984;2022-07-01T07:52:39;101222.09;;;16.71;100.00
65190;BME280;51777;53.570;9.984;2022-07-01T07:55:07;101215.13;;;16.86;100.00
65190;BME280;51777;53.570;9.984;2022-07-01T07:57:35;101217.47;;;17.04;100.00
65190;BME280;51777;53.570;9.984;2022-07-01T08:00:01;101217.84;;;17.16;100.00
65190;BME280;51777;53.570;9.984;2022-07-01T08:02:27;101222.63;;;17.12;100.00
65190;BME280;51777;53.570;9.984;2022-07-01T08:04:54;101218.53;;;17.10;100.00
65190;BME280;51777;53.570;9.984;2022-07-01T08:07:19;101218.66;;;17.16;100.00
65190;BME280;51777;53.570;9.984;2022-07-01T08:09:46;101211.38;;;17.12;99.83
65190;BME280;51777;53.570;9.984;2022-07-01T08:12:15;101209.25;;;17.07;99.86
65190;BME280;51777;53.570;9.984;2022-07-01T08:14:40;101216.84;;;17.17;100.00
65190;BME280;51777;53.570;9.984;2022-07-01T08:17:06;101205.53;;;17.24;99.10
65190;BME280;51777;53.570;9.984;2022-07-01T08:19:31;101204.44;;;17.33;97.68
65190;BME280;51777;53.570;9.984;2022-07-01T08:21:57;101213.91;;;17.35;97.30
65190;BME280;51777;53.570;9.984;2022-07-01T08:24:22;101223.28;;;17.29;96.48
65190;BME280;51777;53.570;9.984;2022-07-01T08:26:48;101236.53;;;17.27;96.92
65190;BME280;51777;53.570;9.984;2022-07-01T08:29:14;101232.53;;;17.17;96.06
65190;BME280;51777;53.570;9.984;2022-07-01T08:31:39;101236.97;;;17.31;96.53
65190;BME280;51777;53.570;9.984;2022-07-01T08:34:05;101238.59;;;17.32;96.55
65190;BME280;51777;53.570;9.984;2022-07-01T08:36:30;101229.81;;;17.63;99.48
65190;BME280;51777;53.570;9.984;2022-07-01T08:38:56;101242.38;;;17.82;95.51
65190;BME280;51777;53.570;9.984;2022-07-01T08:41:21;101245.91;;;17.74;94.31
65190;BME280;51777;53.570;9.984;2022-07-01T08:43:47;101249.56;;;17.65;94.67
65190;BME280;51777;53.570;9.984;2022-07-01T08:46:12;101247.22;;;17.55;94.42
65190;BME280;51777;53.570;9.984;2022-07-01T08:48:42;101247.44;;;17.69;96.81
65190;BME280;51777;53.570;9.984;2022-07-01T08:51:08;101245.91;;;17.74;95.19
65190;BME280;51777;53.570;9.984;2022-07-01T08:53:34;101244.34;;;17.65;95.33
65190;BME280;51777;53.570;9.984;2022-07-01T08:55:59;101243.31;;;17.74;96.23
65190;BME280;51777;53.570;9.984;2022-07-01T08:58:43;101255.66;;;17.80;93.19
65190;BME280;51777;53.570;9.984;2022-07-01T09:01:21;101261.75;;;17.73;93.63
65190;BME280;51777;53.570;9.984;2022-07-01T09:03:54;101265.88;;;17.52;93.09
65190;BME280;51777;53.570;9.984;2022-07-01T09:06:26;101274.03;;;17.35;93.36
65190;BME280;51777;53.570;9.984;2022-07-01T09:08:53;101283.03;;;17.32;96.39
65190;BME280;51777;53.570;9.984;2022-07-01T09:11:23;101281.56;;;17.15;94.45
65190;BME280;51777;53.570;9.984;2022-07-01T09:14:25;101289.22;;;17.16;97.46
65190;BME280;51777;53.570;9.984;2022-07-01T09:16:54;101284.03;;;17.31;96.23
65190;BME280;51777;53.570;9.984;2022-07-01T09:19:22;101288.44;;;17.30;95.48
65190;BME280;51777;53.570;9.984;2022-07-01T09:21:59;101286.22;;;17.42;96.55
65190;BME280;51777;53.570;9.984;2022-07-01T09:27:04;101290.59;;;17.65;94.85
65190;BME280;51777;53.570;9.984;2022-07-01T09:29:35;101295.75;;;17.73;93.39
65190;BME280;51777;53.570;9.984;2022-07-01T09:32:05;101294.22;;;17.64;89.91
65190;BME280;51777;53.570;9.984;2022-07-01T09:34:55;101300.75;;;17.59;92.22
65190;BME280;51777;53.570;9.984;2022-07-01T09:37:22;101302.13;;;17.55;90.76
65190;BME280;51777;53.570;9.984;2022-07-01T09:39:53;101310.69;;;17.49;92.72
65190;BME280;51777;53.570;9.984;2022-07-01T09:42:21;101312.81;;;17.69;93.87
65190;BME280;51777;53.570;9.984;2022-07-01T09:47:26;101310.66;;;17.72;91.49
65190;BME280;51777;53.570;9.984;2022-07-01T09:49:52;101297.06;;;17.77;90.64
65190;BME280;51777;53.570;9.984;2022-07-01T09:52:18;101290.28;;;17.97;91.11
65190;BME280;51777;53.570;9.984;2022-07-01T09:54:45;101291.94;;;18.13;90.12
65190;BME280;51777;53.570;9.984;2022-07-01T09:57:15;101302.00;;;18.31;89.40
65190;BME280;51777;53.570;9.984;2022-07-01T09:59:42;101319.97;;;18.34;87.58
65190;BME280;51777;53.570;9.984;2022-07-01T10:02:11;101316.34;;;17.76;88.29
65190;BME280;51777;53.570;9.984;2022-07-01T10:04:40;101321.28;;;17.71;91.05
65190;BME280;51777;53.570;9.984;2022-07-01T10:10:48;101337.56;;;17.58;89.28
65190;BME280;51777;53.570;9.984;2022-07-01T10:13:17;101342.38;;;17.46;92.06
65190;BME280;51777;53.570;9.984;2022-07-01T10:15:44;101346.50;;;17.26;92.28
65190;BME280;51777;53.570;9.984;2022-07-01T10:18:21;101349.56;;;17.29;95.18
65190;BME280;51777;53.570;9.984;2022-07-01T10:20:48;101359.78;;;17.39;93.56
65190;BME280;51777;53.570;9.984;2022-07-01T10:23:14;101354.31;;;17.26;95.59
65190;BME280;51777;53.570;9.984;2022-07-01T10:25:44;101358.59;;;17.19;91.54
65190;BME280;51777;53.570;9.984;2022-07-01T10:38:30;101359.06;;;17.22;93.20
65190;BME280;51777;53.570;9.984;2022-07-01T10:40:56;101362.34;;;17.24;92.66
65190;BME280;51777;53.570;9.984;2022-07-01T10:43:37;101364.06;;;17.32;92.35
65190;BME280;51777;53.570;9.984;2022-07-01T10:46:04;101374.75;;;17.22;91.60
65190;BME280;51777;53.570;9.984;2022-07-01T10:48:31;101377.84;;;17.26;93.83
65190;BME280;51777;53.570;9.984;2022-07-01T10:50:57;101397.78;;;17.27;93.21
65190;BME280;51777;53.570;9.984;2022-07-01T10:53:23;101385.38;;;17.21;91.46
65190;BME280;51777;53.570;9.984;2022-07-01T10:55:52;101391.72;;;17.26;93.95
65190;BME280;51777;53.570;9.984;2022-07-01T10:58:19;101409.50;;;17.31;93.21
65190;BME280;51777;53.570;9.984;2022-07-01T11:01:00;101405.66;;;17.19;92.65
65190;BME280;51777;53.570;9.984;2022-07-01T11:03:25;101415.13;;;17.20;94.82
65190;BME280;51777;53.570;9.984;2022-07-01T11:05:53;101414.56;;;17.32;93.53
65190;BME280;51777;53.570;9.984;2022-07-01T11:08:21;101419.84;;;17.24;92.04
65190;BME280;51777;53.570;9.984;2022-07-01T11:10:51;101413.25;;;17.06;93.12
65190;BME280;51777;53.570;9.984;2022-07-01T11:13:18;101413.63;;;17.25;94.66
65190;BME280;51777;53.570;9.984;2022-07-01T11:15:45;101416.53;;;17.30;93.35
65190;BME280;51777;53.570;9.984;2022-07-01T11:18:12;101421.88;;;17.37;92.88
65190;BME280;51777;53.570;9.984;2022-07-01T11:20:39;101419.78;;;17.55;93.85
65190;BME280;51777;53.570;9.984;2022-07-01T11:23:04;101415.03;;;17.82;93.33
65190;BME280;51777;53.570;9.984;2022-07-01T11:25:30;101419.16;;;17.99;90.95
65190;BME280;51777;53.570;9.984;2022-07-01T11:27:56;101422.44;;;18.31;91.87
65190;BME280;51777;53.570;9.984;2022-07-01T11:30:22;101419.19;;;18.58;90.29
65190;BME280;51777;53.570;9.984;2022-07-01T11:32:54;101432.41;;;18.50;86.66
65190;BME280;51777;53.570;9.984;2022-07-01T11:35:30;101426.06;;;18.30;85.32
65190;BME280;51777;53.570;9.984;2022-07-01T11:41:02;101424.91;;;17.95;85.66
65190;BME280;51777;53.570;9.984;2022-07-01T11:43:33;101424.50;;;17.83;85.86
65190;BME280;51777;53.570;9.984;2022-07-01T11:46:15;101426.03;;;17.77;87.80
65190;BME280;51777;53.570;9.984;2022-07-01T11:48:43;101429.75;;;17.83;89.30
65190;BME280;51777;53.570;9.984;2022-07-01T11:51:17;101429.16;;;17.96;87.88
65190;BME280;51777;53.570;9.984;2022-07-01T11:53:45;101426.91;;;18.07;87.77
65190;BME280;51777;53.570;9.984;2022-07-01T11:56:13;101420.63;;;18.16;86.76
65190;BME280;51777;53.570;9.984;2022-07-01T11:58:50;101425.84;;;18.16;86.36
65190;BME280;51777;53.570;9.984;2022-07-01T12:03:51;101419.81;;;18.16;85.02
65190;BME280;51777;53.570;9.984;2022-07-01T12:06:18;101423.69;;;18.20;84.64
65190;BME280;51777;53.570;9.984;2022-07-01T12:08:46;101415.38;;;18.16;83.53
65190;BME280;51777;53.570;9.984;2022-07-01T12:11:18;101414.03;;;18.20;84.31
65190;BME280;51777;53.570;9.984;2022-07-01T12:13:46;101424.06;;;18.32;85.34
65190;BME280;51777;53.570;9.984;2022-07-01T12:16:12;101428.41;;;18.39;86.24
65190;BME280;51777;53.570;9.984;2022-07-01T12:18:38;101429.03;;;18.41;84.83
65190;BME280;51777;53.570;9.984;2022-07-01T12:21:04;101435.47;;;18.39;84.56
65190;BME280;51777;53.570;9.984;2022-07-01T12:23:30;101435.34;;;18.32;84.00
65190;BME280;51777;53.570;9.984;2022-07-01T12:26:03;101435.34;;;18.47;84.77
65190;BME280;51777;53.570;9.984;2022-07-01T12:28:39;101435.03;;;18.65;84.60
65190;BME280;51777;53.570;9.984;2022-07-01T12:31:09;101441.38;;;18.85;84.96
65190;BME280;51777;53.570;9.984;2022-07-01T12:33:47;101446.53;;;19.15;82.63
65190;BME280;51777;53.570;9.984;2022-07-01T12:36:13;101448.88;;;19.46;79.62
65190;BME280;51777;53.570;9.984;2022-07-01T12:38:41;101440.69;;;19.70;79.47
65190;BME280;51777;53.570;9.984;2022-07-01T12:41:26;101449.31;;;19.85;75.10
65190;BME280;51777;53.570;9.984;2022-07-01T12:43:52;101442.28;;;19.92;76.72
65190;BME280;51777;53.570;9.984;2022-07-01T12:46:28;101440.94;;;20.31;75.80
65190;BME280;51777;53.570;9.984;2022-07-01T12:48:54;101438.78;;;20.35;72.48
65190;BME280;51777;53.570;9.984;2022-07-01T12:51:19;101435.94;;;20.36;72.95
65190;BME280;51777;53.570;9.984;2022-07-01T12:53:45;101432.78;;;20.19;72.49
65190;BME280;51777;53.570;9.984;2022-07-01T12:56:34;101430.69;;;20.71;74.07
65190;BME280;51777;53.570;9.984;2022-07-01T12:59:00;101435.13;;;21.18;66.82
65190;BME280;51777;53.570;9.984;2022-07-01T13:01:25;101425.41;;;21.12;64.60
65190;BME280;51777;53.570;9.984;2022-07-01T13:03:51;101441.25;;;20.77;66.44
65190;BME280;51777;53.570;9.984;2022-07-01T13:06:17;101437.97;;;21.23;66.13
65190;BME280;51777;53.570;9.984;2022-07-01T13:08:42;101433.63;;;21.90;61.87
65190;BME280;51777;53.570;9.984;2022-07-01T13:11:11;101440.50;;;22.17;62.96